Quant — CNA4980 — position and weather

sailwx.info

Track history (hours):
 
Tides and Currents Weather Stations Pressure Air Temp Water Temp Dewpoint Dewpoint Depression Visibility Wind Speed Wind Dir Waves Ship Positions

Quant

Last reported at 2018-Feb-15 10:57 UTC. Time now 2018-Feb-23 22:38 UTC.
Position N 25°48' W 015°40'.
Warning: this ship's position is 8 days out of date.

Length 50 m; draft 6.1 m.

Type: Fishing. MMSI: 242189100.

Date/timePositionNaut miles runAvg speedWind from/ knotsBaromVisibWave heightAir tempDewpointWater temp
2018-Feb-15 10:57N 25°48' W 015°40'4 8.5
2018-Feb-15 10:27N 25°53' W 015°39'11410.1
2018-Feb-14 23:15N 27°45' W 015°21'310.3
2018-Feb-14 23:00N 27°47' W 015°20'510.2
2018-Feb-14 22:30N 27°52' W 015°19'5 9.9
2018-Feb-14 22:00N 27°57' W 015°19'5 9.9
2018-Feb-14 21:30N 28°02' W 015°21'4 7.8
2018-Feb-14 21:00N 28°06' W 015°22'3 6.2
2018-Feb-14 20:30N 28°08' W 015°25'1 2.0
2018-Feb-14 19:59N 28°09' W 015°25'0 0.0
2018-Feb-14 19:30N 28°09' W 015°25'0 0.0
2018-Feb-14 19:00N 28°09' W 015°25'0 0.0
2018-Feb-14 18:30N 28°09' W 015°25'0 0.0
2018-Feb-14 17:59N 28°09' W 015°25'0 0.0
2018-Feb-14 17:30N 28°09' W 015°25'0 0.0
2018-Feb-14 17:00N 28°09' W 015°25'0 0.0
2018-Feb-14 16:29N 28°09' W 015°25'0 0.0
2018-Feb-14 16:00N 28°09' W 015°25'0 0.0
2018-Feb-14 15:28N 28°09' W 015°25'0 0.0
2018-Feb-14 14:59N 28°09' W 015°25'0 0.0
2018-Feb-14 14:30N 28°09' W 015°25'0 0.0
2018-Feb-14 14:01N 28°09' W 015°25'0 0.0
2018-Feb-14 13:29N 28°09' W 015°25'0 0.0
2018-Feb-14 12:59N 28°09' W 015°25'0 0.0
2018-Feb-14 12:30N 28°09' W 015°25'0 0.0
2018-Feb-14 12:00N 28°09' W 015°25'0 0.0
2018-Feb-14 11:30N 28°09' W 015°25'0 0.0
2018-Feb-14 11:00N 28°09' W 015°25'0 0.0
2018-Feb-14 10:30N 28°09' W 015°25'0 0.0
2018-Feb-14 10:01N 28°09' W 015°25'0 0.0
2018-Feb-14 09:29N 28°09' W 015°25'0 0.0
2018-Feb-14 09:00N 28°09' W 015°25'0 0.0
2018-Feb-14 08:29N 28°09' W 015°25'0 0.0
2018-Feb-14 08:00N 28°09' W 015°25'0 0.0
2018-Feb-14 07:30N 28°09' W 015°25'0 0.0
2018-Feb-14 06:52N 28°09' W 015°25'0 0.0
2018-Feb-14 06:30N 28°09' W 015°25'0 0.0
2018-Feb-14 06:00N 28°09' W 015°25'0 0.0
2018-Feb-14 05:29N 28°09' W 015°25'0 0.0
2018-Feb-14 05:00N 28°09' W 015°25'0 0.0
2018-Feb-14 04:30N 28°09' W 015°25'0 0.0
2018-Feb-14 04:00N 28°09' W 015°25'0 0.0
2018-Feb-14 03:30N 28°09' W 015°25'0 0.0
2018-Feb-14 02:59N 28°09' W 015°25'0 0.0
2018-Feb-14 02:29N 28°09' W 015°25'0 0.0
2018-Feb-14 02:00N 28°09' W 015°25'0 0.0
2018-Feb-14 01:30N 28°09' W 015°25'0 0.0
2018-Feb-14 01:00N 28°09' W 015°25'0 0.0
2018-Feb-14 00:31N 28°09' W 015°25'0 0.0
2018-Feb-14 00:00N 28°09' W 015°25'0 0.0
2018-Feb-13 23:30N 28°09' W 015°25'0 0.0
2018-Feb-13 22:59N 28°09' W 015°25'0 0.0
2018-Feb-13 22:28N 28°09' W 015°25'0 0.0
2018-Feb-13 22:00N 28°09' W 015°25'0 0.0
2018-Feb-13 21:29N 28°09' W 015°25'0 0.0
2018-Feb-13 21:00N 28°09' W 015°25'0 0.0
2018-Feb-13 20:30N 28°09' W 015°25'0 0.0
2018-Feb-13 20:00N 28°09' W 015°25'0 0.0
2018-Feb-13 19:28N 28°09' W 015°25'0 0.0
2018-Feb-13 19:00N 28°09' W 015°25'0 0.0
2018-Feb-13 18:29N 28°09' W 015°25'0 0.0
2018-Feb-13 18:00N 28°09' W 015°25'0 0.0
2018-Feb-13 17:30N 28°09' W 015°25'0 0.0
2018-Feb-13 16:59N 28°09' W 015°25'0 0.0
2018-Feb-13 16:30N 28°09' W 015°25'0 0.0
2018-Feb-13 15:58N 28°09' W 015°25'0 0.0
2018-Feb-13 15:30N 28°09' W 015°25'0 0.0
2018-Feb-13 14:59N 28°09' W 015°25'0 0.0
2018-Feb-13 14:30N 28°09' W 015°25'0 0.0
2018-Feb-13 14:00N 28°09' W 015°25'0 0.0
2018-Feb-13 13:29N 28°09' W 015°25'0 0.0
2018-Feb-13 13:00N 28°09' W 015°25'0 0.0
2018-Feb-13 12:30N 28°09' W 015°25'0 0.0
2018-Feb-13 12:00N 28°09' W 015°25'0 0.0
2018-Feb-13 11:30N 28°09' W 015°25'0 0.0
2018-Feb-13 11:00N 28°09' W 015°25'0 0.0
2018-Feb-13 10:30N 28°09' W 015°25'0 0.0
2018-Feb-13 10:00N 28°09' W 015°25'0 0.0
2018-Feb-13 09:29N 28°09' W 015°25'0 0.0
2018-Feb-13 09:00N 28°09' W 015°25'0 0.0
2018-Feb-13 08:30N 28°09' W 015°25'0 0.0
2018-Feb-13 07:59N 28°09' W 015°25'0 0.0
2018-Feb-13 07:30N 28°09' W 015°25'0 0.0
2018-Feb-13 07:00N 28°09' W 015°25'0 0.0
2018-Feb-13 06:31N 28°09' W 015°25'0 0.0
2018-Feb-13 06:00N 28°09' W 015°25'0 0.0
2018-Feb-13 05:29N 28°09' W 015°25'0 0.0
2018-Feb-13 05:01N 28°09' W 015°25'0 0.0
2018-Feb-13 04:30N 28°09' W 015°25'0 0.0
2018-Feb-13 04:00N 28°09' W 015°25'0 0.0
2018-Feb-13 03:30N 28°09' W 015°25'0 0.0
2018-Feb-13 03:00N 28°09' W 015°25'0 0.0
2018-Feb-13 02:30N 28°09' W 015°25'0 0.0
2018-Feb-13 01:59N 28°09' W 015°25'0 0.0
2018-Feb-13 01:30N 28°09' W 015°25'0 0.0
2018-Feb-13 01:00N 28°09' W 015°25'0 0.0
2018-Feb-13 00:30N 28°09' W 015°25'0 0.0
2018-Feb-12 23:59N 28°09' W 015°25'0 0.0
2018-Feb-12 23:31N 28°09' W 015°25'0 0.0
2018-Feb-12 23:00N 28°09' W 015°25'0 0.0
2018-Feb-12 22:28N 28°09' W 015°25'0 0.0
2018-Feb-12 22:00N 28°09' W 015°25'0 0.0
2018-Feb-12 21:30N 28°09' W 015°25'0 0.0
2018-Feb-12 20:59N 28°09' W 015°25'0 0.0
2018-Feb-12 20:30N 28°09' W 015°25'0 0.0
2018-Feb-12 20:00N 28°09' W 015°25'0 0.0
2018-Feb-12 19:30N 28°09' W 015°25'0 0.0
2018-Feb-12 19:00N 28°09' W 015°25'0 0.0
2018-Feb-12 18:30N 28°09' W 015°25'0 0.0
2018-Feb-12 18:00N 28°09' W 015°25'0 0.0
2018-Feb-12 17:30N 28°09' W 015°25'0 0.0
2018-Feb-12 17:00N 28°09' W 015°25'0 0.0
2018-Feb-12 16:29N 28°09' W 015°25'0 0.0
2018-Feb-12 16:00N 28°09' W 015°25'0 0.0
2018-Feb-12 15:30N 28°09' W 015°25'0 0.0
2018-Feb-12 15:00N 28°09' W 015°25'0 0.0
2018-Feb-12 14:30N 28°09' W 015°25'0 0.0
2018-Feb-12 14:00N 28°09' W 015°25'0 0.0
2018-Feb-12 13:30N 28°09' W 015°25'0 0.0
2018-Feb-12 13:00N 28°09' W 015°25'0 0.0
2018-Feb-12 12:30N 28°09' W 015°25'0 0.0
2018-Feb-12 11:59N 28°09' W 015°25'0 0.0
2018-Feb-12 11:30N 28°09' W 015°25'0 0.0
2018-Feb-12 10:51N 28°09' W 015°25'0 0.0
2018-Feb-12 10:29N 28°09' W 015°25'0 0.0
2018-Feb-12 09:59N 28°09' W 015°25'0 0.0
2018-Feb-12 09:30N 28°09' W 015°25'0 0.0
2018-Feb-12 09:00N 28°09' W 015°25'0 0.0
2018-Feb-12 08:30N 28°09' W 015°25'0 0.0
2018-Feb-12 08:00N 28°09' W 015°25'0 0.0
2018-Feb-12 07:31N 28°09' W 015°25'0 0.0
2018-Feb-12 07:00N 28°09' W 015°25'0 0.0
2018-Feb-12 06:31N 28°09' W 015°25'0 0.0
2018-Feb-12 06:00N 28°09' W 015°25'0 0.0
2018-Feb-12 05:29N 28°09' W 015°25'0 0.0
2018-Feb-12 05:00N 28°09' W 015°25'0 0.0
2018-Feb-12 04:29N 28°09' W 015°25'0 0.0
2018-Feb-12 03:58N 28°09' W 015°25'0 0.0
2018-Feb-12 03:30N 28°09' W 015°25'0 0.0
2018-Feb-12 02:59N 28°09' W 015°25'0 0.0
2018-Feb-12 02:28N 28°09' W 015°25'0 0.0
2018-Feb-12 02:00N 28°09' W 015°25'0 0.0
2018-Feb-12 01:30N 28°09' W 015°25'0 0.0
2018-Feb-12 01:00N 28°09' W 015°25'0 0.0
2018-Feb-12 00:29N 28°09' W 015°25'0 0.0
2018-Feb-11 23:59N 28°09' W 015°25'0 0.0
2018-Feb-11 23:30N 28°09' W 015°25'0 0.0
2018-Feb-11 22:59N 28°09' W 015°25'0 0.0
2018-Feb-11 22:29N 28°09' W 015°25'0 0.0
2018-Feb-11 22:00N 28°09' W 015°25'0 0.0
2018-Feb-11 21:30N 28°09' W 015°25'0 0.0
2018-Feb-11 21:00N 28°09' W 015°25'0 0.0
2018-Feb-11 20:30N 28°09' W 015°25'0 0.0
2018-Feb-11 19:58N 28°09' W 015°25'0 0.0
2018-Feb-11 19:30N 28°09' W 015°25'0 0.0
2018-Feb-11 18:59N 28°09' W 015°25'0 0.0
2018-Feb-11 18:30N 28°09' W 015°25'0 0.0
2018-Feb-11 18:00N 28°09' W 015°25'0 0.0
2018-Feb-11 17:30N 28°09' W 015°25'0 0.0
2018-Feb-11 17:00N 28°09' W 015°25'0 0.0
2018-Feb-11 16:30N 28°09' W 015°25'0 0.0
2018-Feb-11 16:00N 28°09' W 015°25'0 0.0
2018-Feb-11 15:30N 28°09' W 015°25'0 0.0
2018-Feb-11 14:59N 28°09' W 015°25'0 0.0
2018-Feb-11 14:29N 28°09' W 015°25'0 0.0
2018-Feb-11 13:58N 28°09' W 015°25'0 0.0
2018-Feb-11 13:29N 28°09' W 015°25'0 0.0
2018-Feb-11 13:00N 28°09' W 015°25'0 0.0
2018-Feb-11 12:30N 28°09' W 015°25'0 0.0
2018-Feb-11 12:01N 28°09' W 015°25'0 0.0
2018-Feb-11 11:30N 28°09' W 015°25'0 0.0
2018-Feb-11 11:00N 28°09' W 015°25'0 0.0
2018-Feb-11 10:30N 28°09' W 015°25'0 0.0
2018-Feb-11 10:01N 28°09' W 015°25'0 0.0
2018-Feb-11 09:30N 28°09' W 015°25'0 0.0
2018-Feb-11 09:00N 28°09' W 015°25'0 0.0
2018-Feb-11 08:31N 28°09' W 015°25'0 0.0
2018-Feb-11 07:59N 28°09' W 015°25'0 0.0
2018-Feb-11 07:26N 28°09' W 015°25'0 0.0
2018-Feb-11 07:00N 28°09' W 015°25'0 0.0
2018-Feb-11 06:28N 28°09' W 015°25'0 0.0
2018-Feb-11 06:00N 28°09' W 015°25'0 0.0
2018-Feb-11 05:30N 28°09' W 015°25'0 0.0
2018-Feb-11 04:59N 28°09' W 015°25'0 0.0
2018-Feb-11 04:30N 28°09' W 015°25'0 0.0
2018-Feb-11 04:00N 28°09' W 015°25'0 0.0
2018-Feb-11 03:29N 28°09' W 015°25'0 0.0
2018-Feb-11 02:59N 28°09' W 015°25'0 0.0
2018-Feb-11 02:29N 28°09' W 015°25'0 0.0
2018-Feb-11 02:00N 28°09' W 015°25'0 0.0
2018-Feb-11 01:30N 28°09' W 015°25'0 0.0
2018-Feb-11 00:59N 28°09' W 015°25'0 0.0
2018-Feb-11 00:30N 28°09' W 015°25'0 0.0
2018-Feb-11 00:00N 28°09' W 015°25'0 0.0
2018-Feb-10 23:30N 28°09' W 015°25'0 0.0
2018-Feb-10 23:00N 28°09' W 015°25'0 0.0
2018-Feb-10 22:23N 28°09' W 015°25'0 0.0
2018-Feb-10 22:00N 28°09' W 015°25'0 0.0
2018-Feb-10 21:30N 28°09' W 015°25'0 0.0
2018-Feb-10 21:01N 28°09' W 015°25'0 0.0
2018-Feb-10 20:30N 28°09' W 015°25'0 0.0
2018-Feb-10 20:00N 28°09' W 015°25'0 0.0
2018-Feb-10 19:30N 28°09' W 015°25'0 0.0
2018-Feb-10 18:59N 28°09' W 015°25'0 0.0
2018-Feb-10 18:30N 28°09' W 015°25'0 0.0
2018-Feb-10 18:00N 28°09' W 015°25'0 0.0
2018-Feb-10 17:30N 28°09' W 015°25'0 0.0
2018-Feb-10 17:00N 28°09' W 015°25'0 0.0
2018-Feb-10 16:30N 28°09' W 015°25'0 0.0
2018-Feb-10 15:59N 28°09' W 015°25'0 0.0
2018-Feb-10 15:30N 28°09' W 015°25'0 0.0
2018-Feb-10 15:00N 28°09' W 015°25'0 0.0
2018-Feb-10 14:29N 28°09' W 015°25'0 0.0
2018-Feb-10 14:00N 28°09' W 015°25'0 0.0
2018-Feb-10 13:30N 28°09' W 015°25'0 0.0
2018-Feb-10 12:59N 28°09' W 015°25'0 0.0
2018-Feb-10 12:29N 28°09' W 015°25'0 0.0
2018-Feb-10 12:00N 28°09' W 015°25'0 0.0
2018-Feb-10 11:30N 28°09' W 015°25'0 0.0
2018-Feb-10 11:00N 28°09' W 015°25'0 0.0
2018-Feb-10 10:30N 28°09' W 015°25'0 0.0
2018-Feb-10 10:00N 28°09' W 015°25'0 0.0
2018-Feb-10 09:29N 28°09' W 015°25'0 0.0
2018-Feb-10 09:00N 28°09' W 015°25'0 0.0
2018-Feb-10 08:29N 28°09' W 015°25'0 0.0
2018-Feb-10 08:00N 28°09' W 015°25'0 0.0
2018-Feb-10 07:29N 28°09' W 015°25'0 0.0
2018-Feb-10 06:59N 28°09' W 015°25'0 0.0
2018-Feb-10 06:30N 28°09' W 015°25'0 0.0
2018-Feb-10 06:00N 28°09' W 015°25'0 0.0
2018-Feb-10 05:30N 28°09' W 015°25'0 0.0
2018-Feb-10 04:59N 28°09' W 015°25'0 0.0
2018-Feb-10 04:30N 28°09' W 015°25'0 0.0
2018-Feb-10 04:00N 28°09' W 015°25'0 0.0
2018-Feb-10 03:30N 28°09' W 015°25'0 0.0
2018-Feb-10 03:00N 28°09' W 015°25'0 0.0
2018-Feb-10 02:30N 28°09' W 015°25'0 0.0
2018-Feb-10 02:00N 28°09' W 015°25'0 0.0
2018-Feb-10 01:29N 28°09' W 015°25'0 0.0
2018-Feb-10 01:01N 28°09' W 015°25'0 0.0
2018-Feb-10 00:30N 28°09' W 015°25'0 0.0
2018-Feb-10 00:01N 28°09' W 015°25'0 0.0
2018-Feb-09 23:29N 28°09' W 015°25'0 0.0
2018-Feb-09 22:58N 28°09' W 015°25'0 0.0
2018-Feb-09 22:46N 28°09' W 015°25'0 0.0
2018-Feb-09 15:30N 28°09' W 015°25'0 0.0
2018-Feb-09 15:00N 28°09' W 015°25'0 0.0
2018-Feb-09 08:00N 28°09' W 015°25'0 0.0
2018-Feb-09 05:30N 28°09' W 015°25'0 0.0
2018-Feb-09 03:00N 28°09' W 015°25'0 0.0
2018-Feb-09 00:30N 28°09' W 015°25'0 0.0
2018-Feb-08 21:30N 28°09' W 015°25'0 0.0
2018-Feb-08 20:30N 28°09' W 015°25'0 0.0
2018-Feb-08 14:30N 28°09' W 015°25'0 0.0
2018-Feb-08 13:00N 28°09' W 015°25'0 0.0
2018-Feb-08 04:00N 28°09' W 015°25'0 0.0
2018-Feb-08 03:30N 28°09' W 015°25'0 0.0
2018-Feb-08 01:30N 28°09' W 015°25'0 0.0
2018-Feb-08 00:59N 28°09' W 015°25'0 0.0
2018-Feb-08 00:30N 28°09' W 015°25'0 0.0
2018-Feb-08 00:00N 28°09' W 015°25'0 0.0
2018-Feb-07 23:25N 28°09' W 015°25'0 0.0
2018-Feb-07 23:00N 28°09' W 015°25'0 0.0
2018-Feb-07 22:30N 28°09' W 015°25'0 0.0
2018-Feb-07 21:59N 28°09' W 015°25'0 0.0
2018-Feb-07 21:31N 28°09' W 015°25'0 0.0
2018-Feb-07 09:30N 28°09' W 015°25'0 0.0
2018-Feb-07 08:59N 28°09' W 015°25'0 0.0
2018-Feb-07 08:30N 28°09' W 015°25'0 0.0
2018-Feb-07 08:00N 28°09' W 015°25'0 0.0
2018-Feb-07 07:27N 28°09' W 015°25'0 0.0
2018-Feb-07 07:00N 28°09' W 015°25'0 0.0
2018-Feb-07 06:30N 28°09' W 015°25'0 0.0
2018-Feb-07 06:00N 28°09' W 015°25'0 0.0
2018-Feb-07 05:30N 28°09' W 015°25'0 0.0
2018-Feb-07 04:59N 28°09' W 015°25'0 0.0
2018-Feb-07 04:29N 28°09' W 015°25'0 0.0
2018-Feb-07 04:00N 28°09' W 015°25'0 0.0
2018-Feb-07 03:30N 28°09' W 015°25'0 0.0
2018-Feb-07 03:00N 28°09' W 015°25'0 0.0
2018-Feb-07 02:30N 28°09' W 015°25'0 0.0
2018-Feb-07 02:00N 28°09' W 015°25'0 0.0
2018-Feb-07 01:30N 28°09' W 015°25'0 0.0
2018-Feb-07 01:00N 28°09' W 015°25'0 0.0
2018-Feb-07 00:00N 28°09' W 015°25'0 0.0
2018-Feb-06 23:29N 28°09' W 015°25'0 0.0
2018-Feb-06 22:59N 28°09' W 015°25'0 0.0
2018-Feb-06 22:30N 28°09' W 015°25'0 0.0
2018-Feb-06 22:00N 28°09' W 015°25'0 0.0
2018-Feb-06 21:30N 28°09' W 015°25'0 0.0
2018-Feb-06 21:00N 28°09' W 015°25'0 0.0
2018-Feb-06 20:30N 28°09' W 015°25'0 0.0
2018-Feb-06 20:00N 28°09' W 015°25'0 0.0
2018-Feb-06 19:29N 28°09' W 015°25'0 0.0
2018-Feb-06 18:59N 28°09' W 015°25'0 0.0
2018-Feb-06 17:59N 28°09' W 015°25'0 0.0
2018-Feb-06 17:30N 28°09' W 015°25'0 0.0
2018-Feb-06 17:00N 28°09' W 015°25'0 0.0
2018-Feb-06 16:30N 28°09' W 015°25'0 0.0
2018-Feb-06 16:00N 28°09' W 015°25'0 0.0
2018-Feb-06 15:29N 28°09' W 015°25'0 0.0
2018-Feb-06 14:59N 28°09' W 015°25'0 0.0
2018-Feb-06 14:28N 28°09' W 015°25'0 0.0
2018-Feb-06 14:00N 28°09' W 015°25'0 0.0
2018-Feb-06 13:30N 28°09' W 015°25'0 0.0
2018-Feb-06 13:00N 28°09' W 015°25'0 0.0
2018-Feb-06 12:30N 28°09' W 015°25'0 0.0
2018-Feb-06 11:59N 28°09' W 015°25'0 0.0
2018-Feb-06 11:29N 28°09' W 015°25'0 0.0
2018-Feb-06 10:59N 28°09' W 015°25'0 0.0
2018-Feb-06 10:29N 28°09' W 015°25'0 0.0
2018-Feb-06 10:00N 28°09' W 015°25'0 0.0
2018-Feb-06 09:30N 28°09' W 015°25'0 0.0
2018-Feb-06 09:00N 28°09' W 015°25'0 0.0
2018-Feb-06 08:30N 28°09' W 015°25'0 0.0
2018-Feb-06 08:00N 28°09' W 015°25'0 0.0
2018-Feb-06 07:29N 28°09' W 015°25'0 0.0
2018-Feb-06 06:58N 28°09' W 015°25'0 0.0
2018-Feb-06 06:30N 28°09' W 015°25'0 0.0
2018-Feb-06 05:30N 28°09' W 015°25'0 0.0
2018-Feb-06 05:00N 28°09' W 015°25'0 0.0
2018-Feb-06 04:29N 28°09' W 015°25'0 0.0
2018-Feb-06 03:30N 28°09' W 015°25'0 0.0
2018-Feb-06 03:00N 28°09' W 015°25'0 0.0
2018-Feb-06 02:30N 28°09' W 015°25'0 0.0
2018-Feb-06 02:00N 28°09' W 015°25'0 0.0
2018-Feb-06 01:30N 28°09' W 015°25'0 0.0
2018-Feb-06 01:00N 28°09' W 015°25'0 0.0
2018-Feb-06 00:30N 28°09' W 015°25'0 0.0
2018-Feb-06 00:00N 28°09' W 015°25'0 0.0
2018-Feb-05 23:28N 28°09' W 015°25'0 0.0
2018-Feb-05 22:59N 28°09' W 015°25'0 0.0
2018-Feb-05 22:28N 28°09' W 015°25'0 0.0
2018-Feb-05 22:00N 28°09' W 015°25'0 0.0
2018-Feb-05 21:00N 28°09' W 015°25'0 0.0
2018-Feb-05 20:29N 28°09' W 015°25'0 0.0
2018-Feb-05 20:00N 28°09' W 015°25'0 0.0
2018-Feb-05 19:30N 28°09' W 015°25'0 0.0
2018-Feb-05 19:00N 28°09' W 015°25'0 0.0
2018-Feb-05 18:30N 28°09' W 015°25'0 0.0
2018-Feb-05 18:00N 28°09' W 015°25'0 0.0
2018-Feb-05 17:00N 28°09' W 015°25'0 0.0
2018-Feb-05 16:00N 28°09' W 015°25'0 0.0
2018-Feb-05 15:28N 28°09' W 015°25'0 0.0
2018-Feb-05 15:00N 28°09' W 015°25'0 0.0
2018-Feb-05 14:30N 28°09' W 015°25'0 0.0
2018-Feb-05 13:58N 28°09' W 015°25'0 0.0
2018-Feb-05 12:59N 28°09' W 015°25'0 0.0
2018-Feb-05 11:30N 28°09' W 015°25'  
Track history (hours):
 
Tides and Currents Weather Stations Pressure Air Temp Water Temp Dewpoint Dewpoint Depression Visibility Wind Speed Wind Dir Waves Ship Positions

Quant

Last reported at 2018-Feb-15 10:57 UTC. Time now 2018-Feb-23 22:38 UTC.
Position N 25°48' W 015°40'.
Warning: this ship's position is 8 days out of date.

Length 50 m; draft 6.1 m.

Type: Fishing. MMSI: 242189100.

Date/timePositionNaut miles runAvg speedWind from/ knotsBaromVisibWave heightAir tempDewpointWater temp
2018-Feb-15 10:57N 25°48' W 015°40'4 8.5
2018-Feb-15 10:27N 25°53' W 015°39'11410.1
2018-Feb-14 23:15N 27°45' W 015°21'310.3
2018-Feb-14 23:00N 27°47' W 015°20'510.2
2018-Feb-14 22:30N 27°52' W 015°19'5 9.9
2018-Feb-14 22:00N 27°57' W 015°19'5 9.9
2018-Feb-14 21:30N 28°02' W 015°21'4 7.8
2018-Feb-14 21:00N 28°06' W 015°22'3 6.2
2018-Feb-14 20:30N 28°08' W 015°25'1 2.0
2018-Feb-14 19:59N 28°09' W 015°25'0 0.0
2018-Feb-14 19:30N 28°09' W 015°25'0 0.0
2018-Feb-14 19:00N 28°09' W 015°25'0 0.0
2018-Feb-14 18:30N 28°09' W 015°25'0 0.0
2018-Feb-14 17:59N 28°09' W 015°25'0 0.0
2018-Feb-14 17:30N 28°09' W 015°25'0 0.0
2018-Feb-14 17:00N 28°09' W 015°25'0 0.0
2018-Feb-14 16:29N 28°09' W 015°25'0 0.0
2018-Feb-14 16:00N 28°09' W 015°25'0 0.0
2018-Feb-14 15:28N 28°09' W 015°25'0 0.0
2018-Feb-14 14:59N 28°09' W 015°25'0 0.0
2018-Feb-14 14:30N 28°09' W 015°25'0 0.0
2018-Feb-14 14:01N 28°09' W 015°25'0 0.0
2018-Feb-14 13:29N 28°09' W 015°25'0 0.0
2018-Feb-14 12:59N 28°09' W 015°25'0 0.0
2018-Feb-14 12:30N 28°09' W 015°25'0 0.0
2018-Feb-14 12:00N 28°09' W 015°25'0 0.0
2018-Feb-14 11:30N 28°09' W 015°25'0 0.0
2018-Feb-14 11:00N 28°09' W 015°25'0 0.0
2018-Feb-14 10:30N 28°09' W 015°25'0 0.0
2018-Feb-14 10:01N 28°09' W 015°25'0 0.0
2018-Feb-14 09:29N 28°09' W 015°25'0 0.0
2018-Feb-14 09:00N 28°09' W 015°25'0 0.0
2018-Feb-14 08:29N 28°09' W 015°25'0 0.0
2018-Feb-14 08:00N 28°09' W 015°25'0 0.0
2018-Feb-14 07:30N 28°09' W 015°25'0 0.0
2018-Feb-14 06:52N 28°09' W 015°25'0 0.0
2018-Feb-14 06:30N 28°09' W 015°25'0 0.0
2018-Feb-14 06:00N 28°09' W 015°25'0 0.0
2018-Feb-14 05:29N 28°09' W 015°25'0 0.0
2018-Feb-14 05:00N 28°09' W 015°25'0 0.0
2018-Feb-14 04:30N 28°09' W 015°25'0 0.0
2018-Feb-14 04:00N 28°09' W 015°25'0 0.0
2018-Feb-14 03:30N 28°09' W 015°25'0 0.0
2018-Feb-14 02:59N 28°09' W 015°25'0 0.0
2018-Feb-14 02:29N 28°09' W 015°25'0 0.0
2018-Feb-14 02:00N 28°09' W 015°25'0 0.0
2018-Feb-14 01:30N 28°09' W 015°25'0 0.0
2018-Feb-14 01:00N 28°09' W 015°25'0 0.0
2018-Feb-14 00:31N 28°09' W 015°25'0 0.0
2018-Feb-14 00:00N 28°09' W 015°25'0 0.0
2018-Feb-13 23:30N 28°09' W 015°25'0 0.0
2018-Feb-13 22:59N 28°09' W 015°25'0 0.0
2018-Feb-13 22:28N 28°09' W 015°25'0 0.0
2018-Feb-13 22:00N 28°09' W 015°25'0 0.0
2018-Feb-13 21:29N 28°09' W 015°25'0 0.0
2018-Feb-13 21:00N 28°09' W 015°25'0 0.0
2018-Feb-13 20:30N 28°09' W 015°25'0 0.0
2018-Feb-13 20:00N 28°09' W 015°25'0 0.0
2018-Feb-13 19:28N 28°09' W 015°25'0 0.0
2018-Feb-13 19:00N 28°09' W 015°25'0 0.0
2018-Feb-13 18:29N 28°09' W 015°25'0 0.0
2018-Feb-13 18:00N 28°09' W 015°25'0 0.0
2018-Feb-13 17:30N 28°09' W 015°25'0 0.0
2018-Feb-13 16:59N 28°09' W 015°25'0 0.0
2018-Feb-13 16:30N 28°09' W 015°25'0 0.0
2018-Feb-13 15:58N 28°09' W 015°25'0 0.0
2018-Feb-13 15:30N 28°09' W 015°25'0 0.0
2018-Feb-13 14:59N 28°09' W 015°25'0 0.0
2018-Feb-13 14:30N 28°09' W 015°25'0 0.0
2018-Feb-13 14:00N 28°09' W 015°25'0 0.0
2018-Feb-13 13:29N 28°09' W 015°25'0 0.0
2018-Feb-13 13:00N 28°09' W 015°25'0 0.0
2018-Feb-13 12:30N 28°09' W 015°25'0 0.0
2018-Feb-13 12:00N 28°09' W 015°25'0 0.0
2018-Feb-13 11:30N 28°09' W 015°25'0 0.0
2018-Feb-13 11:00N 28°09' W 015°25'0 0.0
2018-Feb-13 10:30N 28°09' W 015°25'0 0.0
2018-Feb-13 10:00N 28°09' W 015°25'0 0.0
2018-Feb-13 09:29N 28°09' W 015°25'0 0.0
2018-Feb-13 09:00N 28°09' W 015°25'0 0.0
2018-Feb-13 08:30N 28°09' W 015°25'0 0.0
2018-Feb-13 07:59N 28°09' W 015°25'0 0.0
2018-Feb-13 07:30N 28°09' W 015°25'0 0.0
2018-Feb-13 07:00N 28°09' W 015°25'0 0.0
2018-Feb-13 06:31N 28°09' W 015°25'0 0.0
2018-Feb-13 06:00N 28°09' W 015°25'0 0.0
2018-Feb-13 05:29N 28°09' W 015°25'0 0.0
2018-Feb-13 05:01N 28°09' W 015°25'0 0.0
2018-Feb-13 04:30N 28°09' W 015°25'0 0.0
2018-Feb-13 04:00N 28°09' W 015°25'0 0.0
2018-Feb-13 03:30N 28°09' W 015°25'0 0.0
2018-Feb-13 03:00N 28°09' W 015°25'0 0.0
2018-Feb-13 02:30N 28°09' W 015°25'0 0.0
2018-Feb-13 01:59N 28°09' W 015°25'0 0.0
2018-Feb-13 01:30N 28°09' W 015°25'0 0.0
2018-Feb-13 01:00N 28°09' W 015°25'0 0.0
2018-Feb-13 00:30N 28°09' W 015°25'0 0.0
2018-Feb-12 23:59N 28°09' W 015°25'0 0.0
2018-Feb-12 23:31N 28°09' W 015°25'0 0.0
2018-Feb-12 23:00N 28°09' W 015°25'0 0.0
2018-Feb-12 22:28N 28°09' W 015°25'0 0.0
2018-Feb-12 22:00N 28°09' W 015°25'0 0.0
2018-Feb-12 21:30N 28°09' W 015°25'0 0.0
2018-Feb-12 20:59N 28°09' W 015°25'0 0.0
2018-Feb-12 20:30N 28°09' W 015°25'0 0.0
2018-Feb-12 20:00N 28°09' W 015°25'0 0.0
2018-Feb-12 19:30N 28°09' W 015°25'0 0.0
2018-Feb-12 19:00N 28°09' W 015°25'0 0.0
2018-Feb-12 18:30N 28°09' W 015°25'0 0.0
2018-Feb-12 18:00N 28°09' W 015°25'0 0.0
2018-Feb-12 17:30N 28°09' W 015°25'0 0.0
2018-Feb-12 17:00N 28°09' W 015°25'0 0.0
2018-Feb-12 16:29N 28°09' W 015°25'0 0.0
2018-Feb-12 16:00N 28°09' W 015°25'0 0.0
2018-Feb-12 15:30N 28°09' W 015°25'0 0.0
2018-Feb-12 15:00N 28°09' W 015°25'0 0.0
2018-Feb-12 14:30N 28°09' W 015°25'0 0.0
2018-Feb-12 14:00N 28°09' W 015°25'0 0.0
2018-Feb-12 13:30N 28°09' W 015°25'0 0.0
2018-Feb-12 13:00N 28°09' W 015°25'0 0.0
2018-Feb-12 12:30N 28°09' W 015°25'0 0.0
2018-Feb-12 11:59N 28°09' W 015°25'0 0.0
2018-Feb-12 11:30N 28°09' W 015°25'0 0.0
2018-Feb-12 10:51N 28°09' W 015°25'0 0.0
2018-Feb-12 10:29N 28°09' W 015°25'0 0.0
2018-Feb-12 09:59N 28°09' W 015°25'0 0.0
2018-Feb-12 09:30N 28°09' W 015°25'0 0.0
2018-Feb-12 09:00N 28°09' W 015°25'0 0.0
2018-Feb-12 08:30N 28°09' W 015°25'0 0.0
2018-Feb-12 08:00N 28°09' W 015°25'0 0.0
2018-Feb-12 07:31N 28°09' W 015°25'0 0.0
2018-Feb-12 07:00N 28°09' W 015°25'0 0.0
2018-Feb-12 06:31N 28°09' W 015°25'0 0.0
2018-Feb-12 06:00N 28°09' W 015°25'0 0.0
2018-Feb-12 05:29N 28°09' W 015°25'0 0.0
2018-Feb-12 05:00N 28°09' W 015°25'0 0.0
2018-Feb-12 04:29N 28°09' W 015°25'0 0.0
2018-Feb-12 03:58N 28°09' W 015°25'0 0.0
2018-Feb-12 03:30N 28°09' W 015°25'0 0.0
2018-Feb-12 02:59N 28°09' W 015°25'0 0.0
2018-Feb-12 02:28N 28°09' W 015°25'0 0.0
2018-Feb-12 02:00N 28°09' W 015°25'0 0.0
2018-Feb-12 01:30N 28°09' W 015°25'0 0.0
2018-Feb-12 01:00N 28°09' W 015°25'0 0.0
2018-Feb-12 00:29N 28°09' W 015°25'0 0.0
2018-Feb-11 23:59N 28°09' W 015°25'0 0.0
2018-Feb-11 23:30N 28°09' W 015°25'0 0.0
2018-Feb-11 22:59N 28°09' W 015°25'0 0.0
2018-Feb-11 22:29N 28°09' W 015°25'0 0.0
2018-Feb-11 22:00N 28°09' W 015°25'0 0.0
2018-Feb-11 21:30N 28°09' W 015°25'0 0.0
2018-Feb-11 21:00N 28°09' W 015°25'0 0.0
2018-Feb-11 20:30N 28°09' W 015°25'0 0.0
2018-Feb-11 19:58N 28°09' W 015°25'0 0.0
2018-Feb-11 19:30N 28°09' W 015°25'0 0.0
2018-Feb-11 18:59N 28°09' W 015°25'0 0.0
2018-Feb-11 18:30N 28°09' W 015°25'0 0.0
2018-Feb-11 18:00N 28°09' W 015°25'0 0.0
2018-Feb-11 17:30N 28°09' W 015°25'0 0.0
2018-Feb-11 17:00N 28°09' W 015°25'0 0.0
2018-Feb-11 16:30N 28°09' W 015°25'0 0.0
2018-Feb-11 16:00N 28°09' W 015°25'0 0.0
2018-Feb-11 15:30N 28°09' W 015°25'0 0.0
2018-Feb-11 14:59N 28°09' W 015°25'0 0.0
2018-Feb-11 14:29N 28°09' W 015°25'0 0.0
2018-Feb-11 13:58N 28°09' W 015°25'0 0.0
2018-Feb-11 13:29N 28°09' W 015°25'0 0.0
2018-Feb-11 13:00N 28°09' W 015°25'0 0.0
2018-Feb-11 12:30N 28°09' W 015°25'0 0.0
2018-Feb-11 12:01N 28°09' W 015°25'0 0.0
2018-Feb-11 11:30N 28°09' W 015°25'0 0.0
2018-Feb-11 11:00N 28°09' W 015°25'0 0.0
2018-Feb-11 10:30N 28°09' W 015°25'0 0.0
2018-Feb-11 10:01N 28°09' W 015°25'0 0.0
2018-Feb-11 09:30N 28°09' W 015°25'0 0.0
2018-Feb-11 09:00N 28°09' W 015°25'0 0.0
2018-Feb-11 08:31N 28°09' W 015°25'0 0.0
2018-Feb-11 07:59N 28°09' W 015°25'0 0.0
2018-Feb-11 07:26N 28°09' W 015°25'0 0.0
2018-Feb-11 07:00N 28°09' W 015°25'0 0.0
2018-Feb-11 06:28N 28°09' W 015°25'0 0.0
2018-Feb-11 06:00N 28°09' W 015°25'0 0.0
2018-Feb-11 05:30N 28°09' W 015°25'0 0.0
2018-Feb-11 04:59N 28°09' W 015°25'0 0.0
2018-Feb-11 04:30N 28°09' W 015°25'0 0.0
2018-Feb-11 04:00N 28°09' W 015°25'0 0.0
2018-Feb-11 03:29N 28°09' W 015°25'0 0.0
2018-Feb-11 02:59N 28°09' W 015°25'0 0.0
2018-Feb-11 02:29N 28°09' W 015°25'0 0.0
2018-Feb-11 02:00N 28°09' W 015°25'0 0.0
2018-Feb-11 01:30N 28°09' W 015°25'0 0.0
2018-Feb-11 00:59N 28°09' W 015°25'0 0.0
2018-Feb-11 00:30N 28°09' W 015°25'0 0.0
2018-Feb-11 00:00N 28°09' W 015°25'0 0.0
2018-Feb-10 23:30N 28°09' W 015°25'0 0.0
2018-Feb-10 23:00N 28°09' W 015°25'0 0.0
2018-Feb-10 22:23N 28°09' W 015°25'0 0.0
2018-Feb-10 22:00N 28°09' W 015°25'0 0.0
2018-Feb-10 21:30N 28°09' W 015°25'0 0.0
2018-Feb-10 21:01N 28°09' W 015°25'0 0.0
2018-Feb-10 20:30N 28°09' W 015°25'0 0.0
2018-Feb-10 20:00N 28°09' W 015°25'0 0.0
2018-Feb-10 19:30N 28°09' W 015°25'0 0.0
2018-Feb-10 18:59N 28°09' W 015°25'0 0.0
2018-Feb-10 18:30N 28°09' W 015°25'0 0.0
2018-Feb-10 18:00N 28°09' W 015°25'0 0.0
2018-Feb-10 17:30N 28°09' W 015°25'0 0.0
2018-Feb-10 17:00N 28°09' W 015°25'0 0.0
2018-Feb-10 16:30N 28°09' W 015°25'0 0.0
2018-Feb-10 15:59N 28°09' W 015°25'0 0.0
2018-Feb-10 15:30N 28°09' W 015°25'0 0.0
2018-Feb-10 15:00N 28°09' W 015°25'0 0.0
2018-Feb-10 14:29N 28°09' W 015°25'0 0.0
2018-Feb-10 14:00N 28°09' W 015°25'0 0.0
2018-Feb-10 13:30N 28°09' W 015°25'0 0.0
2018-Feb-10 12:59N 28°09' W 015°25'0 0.0
2018-Feb-10 12:29N 28°09' W 015°25'0 0.0
2018-Feb-10 12:00N 28°09' W 015°25'0 0.0
2018-Feb-10 11:30N 28°09' W 015°25'0 0.0
2018-Feb-10 11:00N 28°09' W 015°25'0 0.0
2018-Feb-10 10:30N 28°09' W 015°25'0 0.0
2018-Feb-10 10:00N 28°09' W 015°25'0 0.0
2018-Feb-10 09:29N 28°09' W 015°25'0 0.0
2018-Feb-10 09:00N 28°09' W 015°25'0 0.0
2018-Feb-10 08:29N 28°09' W 015°25'0 0.0
2018-Feb-10 08:00N 28°09' W 015°25'0 0.0
2018-Feb-10 07:29N 28°09' W 015°25'0 0.0
2018-Feb-10 06:59N 28°09' W 015°25'0 0.0
2018-Feb-10 06:30N 28°09' W 015°25'0 0.0
2018-Feb-10 06:00N 28°09' W 015°25'0 0.0
2018-Feb-10 05:30N 28°09' W 015°25'0 0.0
2018-Feb-10 04:59N 28°09' W 015°25'0 0.0
2018-Feb-10 04:30N 28°09' W 015°25'0 0.0
2018-Feb-10 04:00N 28°09' W 015°25'0 0.0
2018-Feb-10 03:30N 28°09' W 015°25'0 0.0
2018-Feb-10 03:00N 28°09' W 015°25'0 0.0
2018-Feb-10 02:30N 28°09' W 015°25'0 0.0
2018-Feb-10 02:00N 28°09' W 015°25'0 0.0
2018-Feb-10 01:29N 28°09' W 015°25'0 0.0
2018-Feb-10 01:01N 28°09' W 015°25'0 0.0
2018-Feb-10 00:30N 28°09' W 015°25'0 0.0
2018-Feb-10 00:01N 28°09' W 015°25'0 0.0
2018-Feb-09 23:29N 28°09' W 015°25'0 0.0
2018-Feb-09 22:58N 28°09' W 015°25'0 0.0
2018-Feb-09 22:46N 28°09' W 015°25'0 0.0
2018-Feb-09 15:30N 28°09' W 015°25'0 0.0
2018-Feb-09 15:00N 28°09' W 015°25'0 0.0
2018-Feb-09 08:00N 28°09' W 015°25'0 0.0
2018-Feb-09 05:30N 28°09' W 015°25'0 0.0
2018-Feb-09 03:00N 28°09' W 015°25'0 0.0
2018-Feb-09 00:30N 28°09' W 015°25'0 0.0
2018-Feb-08 21:30N 28°09' W 015°25'0 0.0
2018-Feb-08 20:30N 28°09' W 015°25'0 0.0
2018-Feb-08 14:30N 28°09' W 015°25'0 0.0
2018-Feb-08 13:00N 28°09' W 015°25'0 0.0
2018-Feb-08 04:00N 28°09' W 015°25'0 0.0
2018-Feb-08 03:30N 28°09' W 015°25'0 0.0
2018-Feb-08 01:30N 28°09' W 015°25'0 0.0
2018-Feb-08 00:59N 28°09' W 015°25'0 0.0
2018-Feb-08 00:30N 28°09' W 015°25'0 0.0
2018-Feb-08 00:00N 28°09' W 015°25'0 0.0
2018-Feb-07 23:25N 28°09' W 015°25'0 0.0
2018-Feb-07 23:00N 28°09' W 015°25'0 0.0
2018-Feb-07 22:30N 28°09' W 015°25'0 0.0
2018-Feb-07 21:59N 28°09' W 015°25'0 0.0
2018-Feb-07 21:31N 28°09' W 015°25'0 0.0
2018-Feb-07 09:30N 28°09' W 015°25'0 0.0
2018-Feb-07 08:59N 28°09' W 015°25'0 0.0
2018-Feb-07 08:30N 28°09' W 015°25'0 0.0
2018-Feb-07 08:00N 28°09' W 015°25'0 0.0
2018-Feb-07 07:27N 28°09' W 015°25'0 0.0
2018-Feb-07 07:00N 28°09' W 015°25'0 0.0
2018-Feb-07 06:30N 28°09' W 015°25'0 0.0
2018-Feb-07 06:00N 28°09' W 015°25'0 0.0
2018-Feb-07 05:30N 28°09' W 015°25'0 0.0
2018-Feb-07 04:59N 28°09' W 015°25'0 0.0
2018-Feb-07 04:29N 28°09' W 015°25'0 0.0
2018-Feb-07 04:00N 28°09' W 015°25'0 0.0
2018-Feb-07 03:30N 28°09' W 015°25'0 0.0
2018-Feb-07 03:00N 28°09' W 015°25'0 0.0
2018-Feb-07 02:30N 28°09' W 015°25'0 0.0
2018-Feb-07 02:00N 28°09' W 015°25'0 0.0
2018-Feb-07 01:30N 28°09' W 015°25'0 0.0
2018-Feb-07 01:00N 28°09' W 015°25'0 0.0
2018-Feb-07 00:00N 28°09' W 015°25'0 0.0
2018-Feb-06 23:29N 28°09' W 015°25'0 0.0
2018-Feb-06 22:59N 28°09' W 015°25'0 0.0
2018-Feb-06 22:30N 28°09' W 015°25'0 0.0
2018-Feb-06 22:00N 28°09' W 015°25'0 0.0
2018-Feb-06 21:30N 28°09' W 015°25'0 0.0
2018-Feb-06 21:00N 28°09' W 015°25'0 0.0
2018-Feb-06 20:30N 28°09' W 015°25'0 0.0
2018-Feb-06 20:00N 28°09' W 015°25'0 0.0
2018-Feb-06 19:29N 28°09' W 015°25'0 0.0
2018-Feb-06 18:59N 28°09' W 015°25'0 0.0
2018-Feb-06 17:59N 28°09' W 015°25'0 0.0
2018-Feb-06 17:30N 28°09' W 015°25'0 0.0
2018-Feb-06 17:00N 28°09' W 015°25'0 0.0
2018-Feb-06 16:30N 28°09' W 015°25'0 0.0
2018-Feb-06 16:00N 28°09' W 015°25'0 0.0
2018-Feb-06 15:29N 28°09' W 015°25'0 0.0
2018-Feb-06 14:59N 28°09' W 015°25'0 0.0
2018-Feb-06 14:28N 28°09' W 015°25'0 0.0
2018-Feb-06 14:00N 28°09' W 015°25'0 0.0
2018-Feb-06 13:30N 28°09' W 015°25'0 0.0
2018-Feb-06 13:00N 28°09' W 015°25'0 0.0
2018-Feb-06 12:30N 28°09' W 015°25'0 0.0
2018-Feb-06 11:59N 28°09' W 015°25'0 0.0
2018-Feb-06 11:29N 28°09' W 015°25'0 0.0
2018-Feb-06 10:59N 28°09' W 015°25'0 0.0
2018-Feb-06 10:29N 28°09' W 015°25'0 0.0
2018-Feb-06 10:00N 28°09' W 015°25'0 0.0
2018-Feb-06 09:30N 28°09' W 015°25'0 0.0
2018-Feb-06 09:00N 28°09' W 015°25'0 0.0
2018-Feb-06 08:30N 28°09' W 015°25'0 0.0
2018-Feb-06 08:00N 28°09' W 015°25'0 0.0
2018-Feb-06 07:29N 28°09' W 015°25'0 0.0
2018-Feb-06 06:58N 28°09' W 015°25'0 0.0
2018-Feb-06 06:30N 28°09' W 015°25'0 0.0
2018-Feb-06 05:30N 28°09' W 015°25'0 0.0
2018-Feb-06 05:00N 28°09' W 015°25'0 0.0
2018-Feb-06 04:29N 28°09' W 015°25'0 0.0
2018-Feb-06 03:30N 28°09' W 015°25'0 0.0
2018-Feb-06 03:00N 28°09' W 015°25'0 0.0
2018-Feb-06 02:30N 28°09' W 015°25'0 0.0
2018-Feb-06 02:00N 28°09' W 015°25'0 0.0
2018-Feb-06 01:30N 28°09' W 015°25'0 0.0
2018-Feb-06 01:00N 28°09' W 015°25'0 0.0
2018-Feb-06 00:30N 28°09' W 015°25'0 0.0
2018-Feb-06 00:00N 28°09' W 015°25'0 0.0
2018-Feb-05 23:28N 28°09' W 015°25'0 0.0
2018-Feb-05 22:59N 28°09' W 015°25'0 0.0
2018-Feb-05 22:28N 28°09' W 015°25'0 0.0
2018-Feb-05 22:00N 28°09' W 015°25'0 0.0
2018-Feb-05 21:00N 28°09' W 015°25'0 0.0
2018-Feb-05 20:29N 28°09' W 015°25'0 0.0
2018-Feb-05 20:00N 28°09' W 015°25'0 0.0
2018-Feb-05 19:30N 28°09' W 015°25'0 0.0
2018-Feb-05 19:00N 28°09' W 015°25'0 0.0
2018-Feb-05 18:30N 28°09' W 015°25'0 0.0
2018-Feb-05 18:00N 28°09' W 015°25'0 0.0
2018-Feb-05 17:00N 28°09' W 015°25'0 0.0
2018-Feb-05 16:00N 28°09' W 015°25'0 0.0
2018-Feb-05 15:28N 28°09' W 015°25'0 0.0
2018-Feb-05 15:00N 28°09' W 015°25'0 0.0
2018-Feb-05 14:30N 28°09' W 015°25'0 0.0
2018-Feb-05 13:58N 28°09' W 015°25'0 0.0
2018-Feb-05 12:59N 28°09' W 015°25'0 0.0
2018-Feb-05 11:30N 28°09' W 015°25'  

Dump ship's entire track history